Time;durP1;ratioP1;P1;durP2;ratioP2;P2;SDS_P1;SDS_P2;PMS_P1;PMS_P2;Temp;Humidity;BMP_temperature;BMP_pressure;BME280_temperature;BME280_humidity;BME280_pressure;Samples;Min_cycle;Max_cycle;Signal;HPM_P1;HPM_P2
2023/03/31 00:02:12;;;;;;;12.20;3.20;;;;;;;9.77;100.00;100353.13;5069030;28;20021;-81
2023/03/31 00:04:45;;;;;;;7.32;2.58;;;;;;;9.77;100.00;100351.34;5056190;28;20032;-81
2023/03/31 00:07:15;;;;;;;13.45;2.90;;;;;;;9.78;100.00;100353.06;5069784;28;20037;-79
2023/03/31 00:09:44;;;;;;;6.10;2.58;;;;;;;9.75;100.00;100347.84;5053850;28;20386;-81
2023/03/31 00:12:12;;;;;;;13.38;2.80;;;;;;;9.75;100.00;100339.06;5073534;28;20044;-81
2023/03/31 00:14:38;;;;;;;13.82;3.30;;;;;;;9.72;100.00;100331.19;5041532;28;20113;-80
2023/03/31 00:17:03;;;;;;;7.28;2.80;;;;;;;9.73;100.00;100328.50;5054753;28;20049;-81
2023/03/31 00:19:32;;;;;;;11.75;2.95;;;;;;;9.71;100.00;100310.97;5066181;28;20028;-80
2023/03/31 00:22:00;;;;;;;11.93;3.13;;;;;;;9.72;100.00;100312.69;5063786;28;20032;-79
2023/03/31 00:24:27;;;;;;;16.70;3.05;;;;;;;9.73;100.00;100310.00;5075804;28;20024;-79
2023/03/31 00:26:53;;;;;;;13.85;3.22;;;;;;;9.75;100.00;100307.34;5064766;28;20111;-79
2023/03/31 00:29:18;;;;;;;8.63;2.63;;;;;;;9.74;100.00;100298.50;5061699;28;20128;-79
2023/03/31 00:31:44;;;;;;;11.70;3.13;;;;;;;9.75;100.00;100294.13;5045420;28;20024;-79
2023/03/31 00:34:10;;;;;;;11.15;2.97;;;;;;;9.77;100.00;100295.81;5072921;28;20076;-79
2023/03/31 00:36:44;;;;;;;11.30;3.33;;;;;;;9.78;100.00;100278.16;5053742;28;20060;-80
2023/03/31 00:39:10;;;;;;;11.93;3.05;;;;;;;9.78;100.00;100265.78;5062765;28;20049;-80
2023/03/31 00:41:37;;;;;;;10.25;2.88;;;;;;;9.80;100.00;100269.28;5063575;28;20021;-80
2023/03/31 00:44:07;;;;;;;12.43;3.20;;;;;;;9.78;100.00;100255.22;5063788;28;20094;-80
2023/03/31 00:46:53;;;;;;;7.90;2.25;;;;;;;9.72;100.00;100239.53;5055691;28;20025;-80
2023/03/31 00:49:40;;;;;;;13.75;3.00;;;;;;;9.69;100.00;100235.22;5052026;28;20064;-80
2023/03/31 00:52:13;;;;;;;10.82;3.13;;;;;;;9.69;100.00;100231.66;5052805;28;20086;-80
2023/03/31 00:54:41;;;;;;;5.65;2.42;;;;;;;9.64;100.00;100234.47;5062663;28;20044;-80
2023/03/31 00:57:08;;;;;;;9.48;2.55;;;;;;;9.64;100.00;100223.91;5068748;28;20142;-80
2023/03/31 00:59:40;;;;;;;13.13;2.70;;;;;;;9.62;100.00;100230.13;5068871;28;20434;-80
2023/03/31 01:02:06;;;;;;;9.10;2.38;;;;;;;9.59;100.00;100220.47;5071931;28;20048;-80
2023/03/31 01:04:40;;;;;;;12.05;2.75;;;;;;;9.56;100.00;100217.06;5072169;28;20376;-80
2023/03/31 01:07:29;;;;;;;10.15;2.58;;;;;;;9.57;100.00;100216.16;5070522;28;20139;-80
2023/03/31 01:09:59;;;;;;;8.70;2.35;;;;;;;9.58;100.00;100212.63;5070670;28;20059;-80
2023/03/31 01:12:26;;;;;;;15.50;2.50;;;;;;;9.62;100.00;100209.84;5071980;28;20028;-80
2023/03/31 01:14:52;;;;;;;11.90;3.05;;;;;;;9.56;100.00;100198.56;5070435;28;20548;-80
2023/03/31 01:17:20;;;;;;;9.23;2.53;;;;;;;9.56;100.00;100193.28;5071866;28;20032;-80
2023/03/31 01:20:06;;;;;;;15.43;3.80;;;;;;;9.60;100.00;100195.81;5053518;28;20029;-80
2023/03/31 01:22:48;;;;;;;7.97;2.67;;;;;;;9.59;100.00;100178.19;5052910;28;20039;-80
2023/03/31 01:25:19;;;;;;;8.07;2.25;;;;;;;9.64;100.00;100180.69;5071579;28;20091;-80
2023/03/31 01:27:45;;;;;;;11.75;2.60;;;;;;;9.66;100.00;100170.97;5071671;28;20078;-80
2023/03/31 01:30:31;;;;;;;8.70;2.47;;;;;;;9.68;100.00;100163.84;5069755;28;20020;-80
2023/03/31 01:33:13;;;;;;;10.13;2.42;;;;;;;9.67;100.00;100162.13;5036516;28;20098;-80
2023/03/31 01:36:02;;;;;;;11.85;2.75;;;;;;;9.68;100.00;100154.13;5070497;28;20462;-79
2023/03/31 01:38:43;;;;;;;11.80;2.28;;;;;;;9.71;100.00;100158.47;5053690;28;20434;-79
2023/03/31 01:41:11;;;;;;;15.43;2.90;;;;;;;9.75;100.00;100149.53;5072196;28;20037;-80
2023/03/31 01:43:45;;;;;;;14.25;2.35;;;;;;;9.78;100.00;100143.31;5050682;28;20139;-81
2023/03/31 01:46:27;;;;;;;15.20;2.70;;;;;;;9.78;100.00;100132.72;5061366;28;20437;-80
2023/03/31 01:49:18;;;;;;;14.35;2.53;;;;;;;9.80;100.00;100133.53;5070263;28;20029;-80
2023/03/31 01:51:57;;;;;;;11.13;2.60;;;;;;;9.83;100.00;100128.16;5070227;28;20042;-74
2023/03/31 01:54:29;;;;;;;12.50;2.63;;;;;;;9.90;100.00;100120.00;5070255;28;20119;-81
2023/03/31 01:57:05;;;;;;;11.10;2.72;;;;;;;9.82;100.00;100108.78;5071811;28;20051;-80
2023/03/31 01:59:41;;;;;;;15.02;3.28;;;;;;;9.77;100.00;100105.41;5071502;28;20036;-80
2023/03/31 02:02:14;;;;;;;11.55;2.85;;;;;;;9.72;100.00;100101.16;5071580;28;20040;-80
2023/03/31 02:04:45;;;;;;;10.65;2.72;;;;;;;9.75;100.00;100087.88;5071234;28;20052;-79
2023/03/31 02:07:17;;;;;;;14.20;3.30;;;;;;;9.77;100.00;100084.28;5072413;28;20051;-80
2023/03/31 02:09:49;;;;;;;13.63;2.88;;;;;;;9.75;100.00;100074.66;5074148;28;20053;-80
2023/03/31 02:12:18;;;;;;;12.05;2.95;;;;;;;9.73;100.00;100063.25;5074013;28;20139;-80
2023/03/31 02:14:46;;;;;;;11.50;2.67;;;;;;;9.71;100.00;100055.34;5056972;28;20028;-79
2023/03/31 02:17:20;;;;;;;13.52;2.67;;;;;;;9.71;100.00;100039.50;5073604;28;20483;-79
2023/03/31 02:19:50;;;;;;;12.43;2.75;;;;;;;9.73;100.00;100042.09;5060767;28;20047;-79
2023/03/31 02:22:20;;;;;;;11.10;2.90;;;;;;;9.73;100.00;100034.16;5072825;28;20044;-80
2023/03/31 02:24:50;;;;;;;11.95;2.63;;;;;;;9.69;100.00;100023.69;5073654;28;20425;-79
2023/03/31 02:27:21;;;;;;;9.98;2.20;;;;;;;9.70;100.00;100019.28;5075304;28;20119;-80
2023/03/31 02:29:48;;;;;;;10.95;2.40;;;;;;;9.67;100.00;100000.88;5073709;28;20038;-81
2023/03/31 02:32:26;;;;;;;14.27;3.20;;;;;;;9.66;100.00;99999.13;5075045;28;20031;-79
2023/03/31 02:34:53;;;;;;;7.53;2.38;;;;;;;9.63;100.00;99988.66;5059274;28;20048;-79
2023/03/31 02:37:19;;;;;;;12.40;2.50;;;;;;;9.64;100.00;99990.38;5074800;28;20039;-79
2023/03/31 02:39:48;;;;;;;12.70;2.13;;;;;;;9.66;100.00;99980.63;5073010;28;20041;-80
2023/03/31 02:42:15;;;;;;;10.02;2.20;;;;;;;9.63;100.00;99964.84;5074791;28;20028;-79
2023/03/31 02:44:40;;;;;;;8.40;2.25;;;;;;;9.58;100.00;99956.22;5072814;28;20021;-72
2023/03/31 02:47:10;;;;;;;10.07;2.13;;;;;;;9.59;100.00;99955.28;5074640;28;20047;-73
2023/03/31 02:49:38;;;;;;;7.75;2.22;;;;;;;9.58;100.00;99940.34;5074168;28;20112;-73
2023/03/31 02:52:11;;;;;;;11.93;2.45;;;;;;;9.54;100.00;99933.44;5073113;28;20024;-73
2023/03/31 02:54:58;;;;;;;7.63;2.38;;;;;;;9.53;100.00;99919.34;5060001;28;20029;-74
2023/03/31 02:57:36;;;;;;;13.10;2.55;;;;;;;9.52;100.00;99922.91;5086483;28;20391;-73
2023/03/31 03:00:20;;;;;;;13.18;2.97;;;;;;;9.52;100.00;99911.47;5072840;28;20123;-73
2023/03/31 03:03:08;;;;;;;14.70;2.83;;;;;;;9.51;100.00;99907.09;5062865;28;20024;-73
2023/03/31 03:05:44;;;;;;;12.57;2.38;;;;;;;9.49;100.00;99904.50;5072806;28;20086;-73
2023/03/31 03:08:54;;;;;;;15.27;2.85;;;;;;;9.53;100.00;99889.41;5074123;28;20029;-73
2023/03/31 03:11:38;;;;;;;;;;;;;;;9.56;100.00;99884.03;5073219;28;20032;-73
2023/03/31 03:14:32;;;;;;;11.48;2.92;;;;;;;9.55;100.00;99893.75;5054858;28;20746;-73
2023/03/31 03:17:06;;;;;;;11.32;2.90;;;;;;;9.56;100.00;99873.44;5084497;28;20123;-73
2023/03/31 03:19:31;;;;;;;10.77;3.00;;;;;;;9.59;100.00;99871.56;5072800;28;20064;-73
2023/03/31 03:21:57;;;;;;;18.83;3.30;;;;;;;9.60;100.00;99875.09;5071819;28;20319;-73
2023/03/31 03:24:28;;;;;;;14.73;3.05;;;;;;;9.60;100.00;99877.72;5073352;28;20120;-73
2023/03/31 03:26:54;;;;;;;17.17;2.97;;;;;;;9.61;100.00;99882.09;5073959;28;20032;-73
2023/03/31 03:29:20;;;;;;;16.30;3.03;;;;;;;9.59;100.00;99858.34;5073529;28;20028;-73
2023/03/31 03:31:46;;;;;;;13.88;3.33;;;;;;;9.59;100.00;99858.34;5073866;28;20457;-73
2023/03/31 03:34:11;;;;;;;10.25;2.55;;;;;;;9.59;100.00;99862.78;5073306;28;20076;-73
2023/03/31 03:36:37;;;;;;;14.40;3.10;;;;;;;9.55;100.00;99859.38;5073726;28;20033;-73
2023/03/31 03:39:04;;;;;;;15.30;3.33;;;;;;;9.56;100.00;99860.25;5072264;28;20028;-73
2023/03/31 03:41:30;;;;;;;10.57;2.85;;;;;;;9.52;100.00;99843.63;5073262;28;20043;-74
2023/03/31 03:43:56;;;;;;;13.98;3.00;;;;;;;9.55;100.00;99840.88;5072308;28;20141;-73
2023/03/31 03:46:21;;;;;;;12.07;2.50;;;;;;;9.54;100.00;99831.19;5072131;28;20057;-73
2023/03/31 03:48:47;;;;;;;17.58;3.13;;;;;;;9.52;100.00;99821.59;5072063;28;20119;-73
2023/03/31 03:51:12;;;;;;;21.63;3.50;;;;;;;9.53;100.00;99812.78;5073084;28;20085;-74
2023/03/31 03:53:38;;;;;;;17.38;3.40;;;;;;;9.53;100.00;99802.19;5073483;28;20107;-73
2023/03/31 03:56:04;;;;;;;13.23;2.88;;;;;;;9.49;100.00;99790.84;5072970;28;20036;-73
2023/03/31 03:58:29;;;;;;;11.35;2.58;;;;;;;9.47;100.00;99796.22;5072101;28;20454;-73
2023/03/31 04:00:55;;;;;;;17.83;3.00;;;;;;;9.47;100.00;99782.13;5072992;28;20037;-73
2023/03/31 04:03:21;;;;;;;9.35;2.40;;;;;;;9.53;100.00;99768.69;5071818;28;20058;-73
2023/03/31 04:05:50;;;;;;;14.30;2.80;;;;;;;9.56;100.00;99754.53;5072912;28;20067;-73
2023/03/31 04:08:17;;;;;;;12.48;2.40;;;;;;;9.50;100.00;99757.38;5055038;28;20020;-73
2023/03/31 04:10:44;;;;;;;11.15;2.40;;;;;;;9.49;100.00;99748.56;5073134;28;20041;-73
2023/03/31 04:13:10;;;;;;;13.23;2.63;;;;;;;9.42;100.00;99742.66;5072977;28;20059;-73
2023/03/31 04:15:35;;;;;;;8.60;2.17;;;;;;;9.40;100.00;99733.06;5056564;28;20079;-73
2023/03/31 04:18:01;;;;;;;9.35;2.22;;;;;;;9.41;100.00;99729.50;5071387;28;20427;-73
2023/03/31 04:20:29;;;;;;;6.72;2.03;;;;;;;9.37;100.00;99719.94;5071290;28;20040;-73
2023/03/31 04:22:55;;;;;;;8.13;2.10;;;;;;;9.42;100.00;99718.00;5069640;28;20024;-72
2023/03/31 04:25:21;;;;;;;13.18;2.95;;;;;;;9.39;100.00;99712.81;5071407;28;20048;-73
2023/03/31 04:27:57;;;;;;;11.57;2.60;;;;;;;9.32;100.00;99712.19;5072845;28;20403;-72
2023/03/31 04:30:29;;;;;;;14.07;2.95;;;;;;;9.28;100.00;99704.41;5072531;28;20036;-73
2023/03/31 04:33:02;;;;;;;8.35;2.25;;;;;;;9.34;100.00;99702.41;5071478;28;20322;-73
2023/03/31 04:35:51;;;;;;;8.63;1.83;;;;;;;9.23;100.00;99694.88;5072834;28;20617;-73
2023/03/31 04:38:22;;;;;;;10.18;2.38;;;;;;;9.27;100.00;99690.31;5071333;28;20040;-73
2023/03/31 04:40:49;;;;;;;10.60;2.13;;;;;;;9.26;100.00;99680.69;5072264;28;20055;-72
2023/03/31 04:43:17;;;;;;;13.48;2.40;;;;;;;9.24;100.00;99670.16;5071078;28;20020;-73
2023/03/31 04:45:42;;;;;;;8.65;1.83;;;;;;;9.21;100.00;99664.13;5072530;28;20147;-72
2023/03/31 04:48:08;;;;;;;13.50;2.50;;;;;;;9.18;100.00;99658.97;5072591;28;20135;-72
2023/03/31 04:50:34;;;;;;;8.90;2.40;;;;;;;9.22;100.00;99652.63;5072522;28;20107;-72
2023/03/31 04:53:00;;;;;;;14.75;2.92;;;;;;;9.19;100.00;99645.69;5072602;28;20035;-72
2023/03/31 04:55:26;;;;;;;7.93;2.38;;;;;;;9.19;100.00;99644.84;5072296;28;20036;-72
2023/03/31 04:57:51;;;;;;;6.95;2.30;;;;;;;9.21;100.00;99637.72;5071229;28;20016;-72
2023/03/31 05:00:17;;;;;;;7.53;2.40;;;;;;;9.17;100.00;99626.41;5069666;28;21859;-72
2023/03/31 05:02:43;;;;;;;10.63;2.13;;;;;;;9.16;100.00;99624.69;5072289;28;20482;-72
2023/03/31 05:05:11;;;;;;;10.23;2.30;;;;;;;9.15;100.00;99622.97;5070891;28;20051;-72
2023/03/31 05:07:37;;;;;;;10.00;2.30;;;;;;;9.18;100.00;99627.28;5054758;28;20060;-72
2023/03/31 05:10:04;;;;;;;12.10;2.30;;;;;;;9.16;100.00;99619.38;5070681;28;20017;-72
2023/03/31 05:12:34;;;;;;;10.85;2.20;;;;;;;9.16;100.00;99618.53;5070949;28;20467;-72
2023/03/31 05:15:00;;;;;;;11.77;2.28;;;;;;;9.19;100.00;99614.00;5070671;28;20040;-72
2023/03/31 05:17:26;;;;;;;6.15;1.67;;;;;;;9.15;100.00;99606.22;5072370;28;20028;-72
2023/03/31 05:19:52;;;;;;;10.68;2.60;;;;;;;9.13;100.00;99595.75;5071583;28;20040;-72
2023/03/31 05:22:19;;;;;;;10.10;2.38;;;;;;;9.15;100.00;99598.31;5072010;28;20066;-72
2023/03/31 05:24:46;;;;;;;14.75;3.58;;;;;;;9.13;100.00;99589.59;5070667;28;20487;-72
2023/03/31 05:27:12;;;;;;;9.45;2.30;;;;;;;9.17;100.00;99588.56;5070800;28;20025;-72
2023/03/31 05:29:37;;;;;;;8.23;2.00;;;;;;;9.12;100.00;99582.56;5072277;28;20064;-72
2023/03/31 05:32:03;;;;;;;7.82;1.73;;;;;;;9.16;100.00;99597.41;5072051;28;20094;-72
2023/03/31 05:34:29;;;;;;;10.23;2.20;;;;;;;9.14;100.00;99588.66;5056787;28;20075;-73
2023/03/31 05:36:55;;;;;;;8.35;2.10;;;;;;;9.15;100.00;99586.00;5071779;28;20463;-72
2023/03/31 05:39:21;;;;;;;6.10;1.75;;;;;;;9.13;100.00;99581.69;5071707;28;20082;-72
2023/03/31 05:41:46;;;;;;;8.88;1.98;;;;;;;9.14;100.00;99565.75;5063999;28;20693;-73
2023/03/31 05:44:12;;;;;;;7.80;2.10;;;;;;;9.12;100.00;99570.22;5069811;28;20068;-72
2023/03/31 05:46:37;;;;;;;9.20;2.38;;;;;;;9.11;100.00;99568.53;5075787;28;20032;-73
2023/03/31 05:49:03;;;;;;;6.00;2.00;;;;;;;9.12;100.00;99569.38;5074259;28;20040;-72
2023/03/31 05:51:28;;;;;;;5.55;1.83;;;;;;;9.13;100.00;99569.31;5074331;28;20028;-72
2023/03/31 05:53:54;;;;;;;11.80;2.17;;;;;;;9.12;100.00;99567.59;5073954;28;20395;-72
2023/03/31 05:56:20;;;;;;;8.55;2.00;;;;;;;9.14;100.00;99573.69;5068136;28;20028;-72
2023/03/31 05:58:46;;;;;;;9.57;2.33;;;;;;;9.14;100.00;99567.53;5074024;28;20037;-73
2023/03/31 06:01:18;;;;;;;8.25;1.65;;;;;;;9.14;100.00;99567.53;5073644;28;20044;-73
2023/03/31 06:03:44;;;;;;;7.93;1.90;;;;;;;9.16;100.00;99571.84;5073049;28;20059;-73
2023/03/31 06:06:11;;;;;;;11.10;2.30;;;;;;;9.14;100.00;99568.41;5065869;28;20033;-73
2023/03/31 06:08:37;;;;;;;7.75;2.22;;;;;;;9.16;100.00;99568.34;5055684;28;20043;-79
2023/03/31 06:11:05;;;;;;;8.52;1.98;;;;;;;9.14;100.00;99556.97;5074895;28;20025;-79
2023/03/31 06:13:30;;;;;;;8.15;1.80;;;;;;;9.12;100.00;99554.38;5075026;28;20089;-79
2023/03/31 06:15:58;;;;;;;4.78;1.48;;;;;;;9.12;100.00;99556.16;5073400;28;20029;-80
2023/03/31 06:18:27;;;;;;;2.95;1.10;;;;;;;9.11;100.00;99549.19;5075171;28;20032;-80
2023/03/31 06:20:53;;;;;;;7.05;2.08;;;;;;;9.08;100.00;99538.72;5071959;28;20028;-80
2023/03/31 06:23:19;;;;;;;7.78;1.63;;;;;;;9.07;100.00;99535.19;5070969;28;20113;-79
2023/03/31 06:25:45;;;;;;;8.13;1.80;;;;;;;9.06;100.00;99538.78;5069408;28;20432;-79
2023/03/31 06:28:10;;;;;;;8.48;1.80;;;;;;;9.06;100.00;99545.84;5051798;28;20061;-79
2023/03/31 06:30:36;;;;;;;12.15;1.75;;;;;;;9.19;100.00;99532.13;5056857;28;20024;-79
2023/03/31 06:33:02;;;;;;;6.07;1.80;;;;;;;9.08;100.00;99531.66;5053479;28;20039;-80
2023/03/31 06:35:28;;;;;;;6.57;2.28;;;;;;;9.08;100.00;99522.88;5074304;28;20101;-79
2023/03/31 06:37:54;;;;;;;7.97;1.77;;;;;;;9.08;100.00;99517.59;5073206;28;20040;-79
2023/03/31 06:40:22;;;;;;;4.70;1.98;;;;;;;9.07;100.00;99510.59;5073859;28;20040;-79
2023/03/31 06:42:47;;;;;;;5.25;1.50;;;;;;;9.03;100.00;99509.84;5065141;28;20407;-79
2023/03/31 06:45:13;;;;;;;7.72;1.90;;;;;;;9.04;100.00;99514.19;5072923;28;20032;-79
2023/03/31 06:47:40;;;;;;;11.82;2.15;;;;;;;9.01;100.00;99516.97;5065220;28;20037;-79
2023/03/31 06:50:07;;;;;;;5.45;1.90;;;;;;;9.00;100.00;99518.75;5072770;28;20025;-79
2023/03/31 06:52:32;;;;;;;5.03;1.88;;;;;;;8.99;100.00;99495.03;5068503;28;20024;-79
2023/03/31 06:54:59;;;;;;;5.60;1.73;;;;;;;8.98;100.00;99499.44;5066688;28;20044;-79
2023/03/31 06:57:25;;;;;;;6.25;1.55;;;;;;;9.00;100.00;99488.81;5067094;28;20064;-79
2023/03/31 06:59:51;;;;;;;5.70;1.60;;;;;;;9.02;100.00;99481.69;5066674;28;20455;-79
2023/03/31 07:02:16;;;;;;;4.22;1.40;;;;;;;9.05;100.00;99486.88;5074219;28;20024;-79
2023/03/31 07:04:42;;;;;;;4.57;1.42;;;;;;;9.10;100.00;99478.75;5072598;28;20083;-80
2023/03/31 07:07:07;;;;;;;6.15;1.63;;;;;;;9.11;100.00;99477.88;5074212;28;20024;-80
2023/03/31 07:09:33;;;;;;;3.08;1.33;;;;;;;9.13;100.00;99478.69;5072373;28;20119;-79
2023/03/31 07:11:58;;;;;;;5.07;1.27;;;;;;;9.11;100.00;99473.44;5074091;28;20641;-79
2023/03/31 07:14:24;;;;;;;5.00;1.33;;;;;;;9.19;100.00;99462.59;5072768;28;20550;-80
2023/03/31 07:16:49;;;;;;;4.47;1.20;;;;;;;9.19;100.00;99463.44;5072775;28;20056;-79
2023/03/31 07:19:15;;;;;;;2.72;1.20;;;;;;;9.22;100.00;99460.69;5072162;28;20036;-79
2023/03/31 07:21:41;;;;;;;8.63;1.88;;;;;;;9.30;100.00;99452.47;5071644;28;20341;-80
2023/03/31 07:24:06;;;;;;;4.13;1.42;;;;;;;9.31;100.00;99450.69;5072250;28;20060;-79
2023/03/31 07:26:32;;;;;;;5.93;1.65;;;;;;;9.35;100.00;99458.44;5058911;28;20052;-79
2023/03/31 07:28:58;;;;;;;5.05;1.88;;;;;;;9.38;100.00;99447.75;5067166;28;20452;-79
2023/03/31 07:31:24;;;;;;;4.97;1.65;;;;;;;9.37;100.00;99440.75;5064402;28;20142;-78
2023/03/31 07:33:49;;;;;;;6.05;1.70;;;;;;;9.35;100.00;99437.31;5062199;28;20045;-79
2023/03/31 07:36:15;;;;;;;5.43;1.67;;;;;;;9.35;100.00;99439.94;5055537;28;20060;-80
2023/03/31 07:38:42;;;;;;;9.80;2.20;;;;;;;9.38;100.00;99445.09;5072419;28;20062;-80
2023/03/31 07:41:13;;;;;;;10.80;2.10;;;;;;;9.46;100.00;99444.81;5071806;28;20032;-79
2023/03/31 07:43:39;;;;;;;9.13;2.20;;;;;;;9.46;100.00;99447.44;5073421;28;20612;-79
2023/03/31 07:46:06;;;;;;;8.38;2.15;;;;;;;9.51;100.00;99441.97;5066385;28;20514;-70
2023/03/31 07:48:32;;;;;;;9.45;2.40;;;;;;;9.53;100.00;99443.63;5064631;28;20041;-71
2023/03/31 07:50:58;;;;;;;11.02;2.35;;;;;;;9.60;100.00;99446.91;5068330;28;20070;-71
2023/03/31 07:53:30;;;;;;;11.95;2.40;;;;;;;9.63;100.00;99430.91;5071867;28;20067;-71
2023/03/31 07:55:55;;;;;;;15.35;2.92;;;;;;;9.69;100.00;99441.22;5067852;28;20068;-71
2023/03/31 07:58:21;;;;;;;15.82;2.67;;;;;;;9.80;100.00;99440.81;5071725;28;20024;-71
2023/03/31 08:00:46;;;;;;;13.52;2.45;;;;;;;9.86;100.00;99446.69;5071453;28;20487;-71
2023/03/31 08:03:12;;;;;;;10.35;2.72;;;;;;;9.90;100.00;99436.84;5061358;28;20063;-71
2023/03/31 08:05:37;;;;;;;11.10;2.58;;;;;;;9.93;100.00;99444.66;5071383;28;20078;-71
2023/03/31 08:08:06;;;;;;;12.68;3.05;;;;;;;9.96;100.00;99431.28;5071777;28;20027;-71
2023/03/31 08:10:31;;;;;;;13.30;2.95;;;;;;;10.03;100.00;99426.63;5071016;28;20368;-71
2023/03/31 08:12:57;;;;;;;14.30;3.00;;;;;;;10.09;100.00;99432.53;5071828;28;20226;-70
2023/03/31 08:15:23;;;;;;;17.25;4.05;;;;;;;10.07;100.00;99423.78;5071014;28;20090;-71
2023/03/31 08:17:48;;;;;;;15.57;3.53;;;;;;;10.06;100.00;99416.78;5072707;28;20017;-71
2023/03/31 08:20:14;;;;;;;23.77;3.67;;;;;;;10.07;100.00;99415.00;5069652;28;20039;-71
2023/03/31 08:22:40;;;;;;;19.58;3.97;;;;;;;10.12;100.00;99420.94;5071144;28;20031;-71
2023/03/31 08:25:07;;;;;;;19.15;4.00;;;;;;;10.16;100.00;99414.59;5072610;28;20124;-71
2023/03/31 08:27:38;;;;;;;17.85;4.57;;;;;;;10.18;100.00;99415.38;5071140;28;20028;-71
2023/03/31 08:30:05;;;;;;;;;;;;;;;10.26;100.00;99415.03;5072731;28;20028;-71
2023/03/31 08:32:34;;;;;;;23.17;3.60;;;;;;;10.34;100.00;99415.63;5072319;28;19912;-72
2023/03/31 08:35:00;;;;;;;21.65;4.03;;;;;;;10.35;100.00;99414.69;5069557;28;20063;-71
2023/03/31 08:37:27;;;;;;;19.98;3.53;;;;;;;10.38;100.00;99416.34;5060017;28;20476;-72
2023/03/31 08:39:54;;;;;;;23.17;4.13;;;;;;;10.40;100.00;99417.13;5068191;28;20032;-71
2023/03/31 08:42:44;;;;;;;16.98;3.45;;;;;;;10.46;100.00;99417.75;5072550;28;20025;-71
2023/03/31 08:45:24;;;;;;;17.52;3.60;;;;;;;10.46;100.00;99414.22;5066758;28;20040;-70
2023/03/31 08:47:59;;;;;;;16.08;3.45;;;;;;;10.52;100.00;99408.66;5072262;28;20079;-71
2023/03/31 08:50:30;;;;;;;14.23;3.85;;;;;;;10.57;100.00;99403.16;5066520;28;20108;-72
2023/03/31 08:53:29;;;;;;;16.42;3.63;;;;;;;10.58;100.00;99403.06;5064976;28;20382;-79
2023/03/31 08:55:56;;;;;;;21.23;4.65;;;;;;;10.60;100.00;99401.22;5061160;28;20094;-79
2023/03/31 08:58:40;;;;;;;22.33;4.28;;;;;;;10.65;100.00;99396.56;5072088;28;20025;-79
2023/03/31 09:01:23;;;;;;;22.63;3.90;;;;;;;10.71;100.00;99398.13;5061733;28;20421;-79
2023/03/31 09:03:49;;;;;;;18.33;3.90;;;;;;;10.79;100.00;99390.66;5067997;28;20468;-80
2023/03/31 09:06:21;;;;;;;17.88;4.70;;;;;;;10.79;100.00;99401.25;5061161;28;20111;-80
2023/03/31 09:08:46;;;;;;;21.58;3.33;;;;;;;10.90;100.00;99400.75;5069127;28;20028;-80
2023/03/31 09:11:32;;;;;;;19.70;4.40;;;;;;;10.91;100.00;99402.50;5063995;28;20348;-80
2023/03/31 09:14:05;;;;;;;22.88;4.05;;;;;;;10.95;100.00;99398.75;5061262;28;20651;-81
2023/03/31 09:16:40;;;;;;;18.92;3.83;;;;;;;11.02;100.00;99384.28;5043526;28;20123;-80
2023/03/31 09:19:17;;;;;;;19.83;4.75;;;;;;;11.08;100.00;99389.31;5065304;28;20085;-80
2023/03/31 09:21:48;;;;;;;21.15;4.43;;;;;;;11.18;100.00;99379.16;5058971;28;20090;-80
2023/03/31 09:24:20;;;;;;;18.02;4.85;;;;;;;11.25;100.00;99390.28;5069817;28;20422;-80
2023/03/31 09:27:00;;;;;;;16.83;3.50;;;;;;;11.32;100.00;99381.97;5071078;28;20505;-80
2023/03/31 09:29:40;;;;;;;22.40;3.65;;;;;;;11.46;100.00;99389.25;5061889;28;20062;-81
2023/03/31 09:32:20;;;;;;;15.02;4.03;;;;;;;11.39;100.00;99379.88;5060323;28;20048;-81
2023/03/31 09:34:50;;;;;;;16.75;3.65;;;;;;;11.45;100.00;99382.25;5057587;28;20066;-81
2023/03/31 09:37:15;;;;;;;22.15;5.00;;;;;;;11.49;97.10;99367.91;5065411;28;20060;-80
2023/03/31 09:39:41;;;;;;;20.13;4.30;;;;;;;11.35;99.77;99371.25;5068782;28;20060;-81
2023/03/31 09:42:11;;;;;;;20.08;4.40;;;;;;;11.39;98.86;99370.13;5070440;28;20036;-80
2023/03/31 09:44:43;;;;;;;18.92;3.40;;;;;;;11.47;96.38;99371.56;5064259;28;20037;-80
2023/03/31 09:47:18;;;;;;;10.77;3.15;;;;;;;11.51;95.04;99375.78;5069922;28;20479;-80
2023/03/31 09:49:45;;;;;;;12.00;3.40;;;;;;;11.34;93.92;99372.16;5061712;28;20042;-81
2023/03/31 09:52:31;;;;;;;20.52;3.40;;;;;;;11.37;96.02;99361.44;5067910;28;20035;-81
2023/03/31 09:55:20;;;;;;;23.15;4.57;;;;;;;11.40;98.45;99365.72;5061407;28;20033;-81
2023/03/31 09:57:45;;;;;;;18.27;3.75;;;;;;;11.47;96.14;99358.31;5061832;28;20041;-81
2023/03/31 10:00:14;;;;;;;15.27;4.07;;;;;;;11.54;94.03;99352.63;5058615;28;20115;-81
2023/03/31 10:02:50;;;;;;;17.42;3.45;;;;;;;11.49;95.82;99352.00;5058841;28;20040;-81
2023/03/31 10:05:35;;;;;;;12.93;3.40;;;;;;;11.70;92.54;99365.16;5057368;28;20033;-82
2023/03/31 10:08:10;;;;;;;15.52;3.63;;;;;;;11.63;90.14;99360.13;5062397;28;20043;-81
2023/03/31 10:10:36;;;;;;;16.13;3.30;;;;;;;11.54;92.38;99352.63;5070989;28;20510;-81
2023/03/31 10:13:08;;;;;;;14.70;2.92;;;;;;;11.56;92.54;99353.41;5071394;28;20048;-81
2023/03/31 10:15:37;;;;;;;14.77;2.90;;;;;;;11.65;94.38;99354.75;5069668;28;20028;-82
2023/03/31 10:18:02;;;;;;;16.45;3.75;;;;;;;11.70;92.45;99343.94;5060719;28;20021;-81
2023/03/31 10:20:42;;;;;;;12.40;2.83;;;;;;;11.78;90.69;99349.69;5068562;28;20051;-81
2023/03/31 10:23:16;;;;;;;13.50;2.83;;;;;;;11.78;90.86;99337.28;5064286;28;20051;-81
2023/03/31 10:25:45;;;;;;;13.48;3.30;;;;;;;11.70;89.75;99328.03;5062074;28;20033;-81
2023/03/31 10:28:15;;;;;;;14.00;3.15;;;;;;;11.77;93.69;99334.69;5073457;28;20036;-81
2023/03/31 10:30:48;;;;;;;13.70;3.15;;;;;;;11.90;90.55;99337.63;5074668;28;20056;-81
2023/03/31 10:33:17;;;;;;;14.48;2.90;;;;;;;11.91;87.56;99331.38;5073971;28;20032;-81
2023/03/31 10:35:49;;;;;;;16.05;3.30;;;;;;;11.92;88.60;99341.03;5074227;28;20503;-81
2023/03/31 10:38:22;;;;;;;13.02;3.70;;;;;;;11.89;88.46;99318.19;5073442;28;20034;-81
2023/03/31 10:40:53;;;;;;;11.15;2.60;;;;;;;11.92;87.88;99314.53;5074544;28;20044;-81
2023/03/31 10:43:33;;;;;;;16.13;3.25;;;;;;;11.96;87.51;99329.34;5074611;28;20069;-81
2023/03/31 10:45:59;;;;;;;12.90;3.28;;;;;;;11.91;87.20;99334.88;5074600;28;20491;-82
2023/03/31 10:48:30;;;;;;;16.60;4.18;;;;;;;11.90;88.04;99321.72;5073182;28;20100;-81
2023/03/31 10:51:04;;;;;;;6.65;2.53;;;;;;;11.87;87.73;99327.16;5074727;28;20036;-82
2023/03/31 10:53:43;;;;;;;13.73;3.35;;;;;;;11.87;87.72;99317.44;5074581;28;20036;-82
2023/03/31 10:56:12;;;;;;;14.05;3.35;;;;;;;11.82;89.33;99314.13;5074478;28;20060;-82
2023/03/31 10:59:05;;;;;;;17.40;4.03;;;;;;;11.84;86.82;99321.06;5073255;28;20257;-81
2023/03/31 11:01:44;;;;;;;14.20;2.97;;;;;;;11.90;89.29;99313.78;5074240;28;20036;-81
2023/03/31 11:04:28;;;;;;;11.05;2.97;;;;;;;11.95;88.42;99307.28;5074315;28;20036;-80
2023/03/31 11:07:12;;;;;;;15.20;3.25;;;;;;;11.94;86.73;99294.97;5074159;28;20111;-81
2023/03/31 11:09:59;;;;;;;15.35;3.03;;;;;;;12.18;85.55;99308.72;5078617;28;20051;-81
2023/03/31 11:12:45;;;;;;;11.88;3.05;;;;;;;12.00;86.51;99307.91;5080171;28;20040;-81
2023/03/31 11:15:19;;;;;;;15.57;3.80;;;;;;;12.13;85.31;99304.59;5074144;28;20483;-82
2023/03/31 11:18:14;;;;;;;12.85;2.80;;;;;;;12.17;85.75;99296.41;5072744;28;20033;-80
2023/03/31 11:20:58;;;;;;;16.17;3.45;;;;;;;12.21;86.63;99295.28;5066807;28;20567;-81
2023/03/31 11:23:39;;;;;;;16.80;4.10;;;;;;;12.34;84.92;99289.31;5073344;28;20073;-81
2023/03/31 11:26:10;;;;;;;13.25;3.75;;;;;;;12.31;85.82;99300.09;5072116;28;20037;-80
2023/03/31 11:28:45;;;;;;;17.55;3.30;;;;;;;12.34;84.72;99282.22;5073852;28;20044;-82
2023/03/31 11:31:31;;;;;;;15.32;3.20;;;;;;;12.41;86.18;99262.38;5066566;28;20045;-81
2023/03/31 11:34:17;;;;;;;10.10;2.90;;;;;;;12.60;83.72;99259.53;5070631;28;20106;-82
2023/03/31 11:36:42;;;;;;;13.55;3.38;;;;;;;12.60;81.07;99271.97;5063851;28;20115;-82
2023/03/31 11:39:18;;;;;;;13.02;3.63;;;;;;;12.65;81.16;99257.50;5071410;28;20127;-82
2023/03/31 11:41:56;;;;;;;18.33;3.22;;;;;;;12.58;82.33;99272.03;5073453;28;20039;-81
2023/03/31 11:44:24;;;;;;;19.15;3.67;;;;;;;12.64;82.56;99271.72;5068902;28;20076;-82